Time;durP1;ratioP1;P1;durP2;ratioP2;P2;SDS_P1;SDS_P2;PMS_P1;PMS_P2;Temp;Humidity;BMP_temperature;BMP_pressure;BME280_temperature;BME280_humidity;BME280_pressure;Samples;Min_cycle;Max_cycle;Signal;HPM_P1;HPM_P2
2022/09/25 13:57:16;;;;;;;1.08;0.30;;;17.90;99.90;;;;;;6126729;23;20185;-66
2022/09/25 13:59:43;;;;;;;2.53;0.40;;;17.70;99.90;;;;;;6127583;23;20210;-69
2022/09/25 14:02:40;;;;;;;0.73;0.38;;;17.80;99.90;;;;;;6134866;23;20204;-68
2022/09/25 14:05:07;;;;;;;1.67;0.60;;;17.90;99.90;;;;;;6156773;23;20209;-65
2022/09/25 14:07:35;;;;;;;0.40;0.20;;;17.90;99.90;;;;;;6157059;23;20178;-68
2022/09/25 14:10:02;;;;;;;1.20;0.40;;;17.80;99.90;;;;;;6156715;23;20268;-68
2022/09/25 14:12:37;;;;;;;0.40;0.22;;;17.90;99.90;;;;;;6156928;23;20198;-65
2022/09/25 14:15:12;;;;;;;0.55;0.38;;;18.00;99.90;;;;;;6156552;23;20181;-69
2022/09/25 14:17:43;;;;;;;3.40;0.20;;;18.10;99.90;;;;;;6157102;23;20184;-68
2022/09/25 14:20:29;;;;;;;1.03;0.30;;;18.00;99.90;;;;;;6156862;23;20206;-69
2022/09/25 14:22:59;;;;;;;0.82;0.30;;;18.10;99.90;;;;;;6156776;23;20276;-66
2022/09/25 14:25:32;;;;;;;0.63;0.43;;;18.10;99.90;;;;;;6156770;23;20185;-68
2022/09/25 14:28:02;;;;;;;0.88;0.20;;;18.10;99.90;;;;;;6156293;23;20638;-66
2022/09/25 14:30:31;;;;;;;1.52;0.40;;;18.30;99.90;;;;;;6152670;23;20186;-69
2022/09/25 14:33:17;;;;;;;1.05;0.28;;;18.50;99.90;;;;;;6156163;23;20304;-69
2022/09/25 14:35:50;;;;;;;0.90;0.30;;;18.30;99.90;;;;;;6156039;23;20184;-68
2022/09/25 14:38:35;;;;;;;0.90;0.30;;;18.30;99.90;;;;;;6155826;23;20643;-68
2022/09/25 14:41:21;;;;;;;0.65;0.47;;;18.30;99.90;;;;;;6155525;23;20765;-68
2022/09/25 14:44:03;;;;;;;2.30;0.40;;;18.30;99.90;;;;;;6156346;23;20205;-67
2022/09/25 14:46:31;;;;;;;0.63;0.40;;;18.40;99.90;;;;;;6155936;23;20182;-64
2022/09/25 14:49:00;;;;;;;0.67;0.40;;;18.50;99.90;;;;;;6155975;23;20182;-66
2022/09/25 14:51:39;;;;;;;0.98;0.47;;;18.60;99.90;;;;;;6156230;23;20178;-66
2022/09/25 14:54:09;;;;;;;17.23;7.20;;;18.50;99.90;;;;;;6156355;23;20244;-67
2022/09/25 14:56:36;;;;;;;1.52;0.80;;;18.50;99.90;;;;;;6181361;23;20191;-66
2022/09/25 14:59:10;;;;;;;0.77;0.30;;;18.60;99.90;;;;;;6185078;23;20672;-66
2022/09/25 15:01:45;;;;;;;1.27;0.25;;;18.70;99.90;;;;;;6185782;23;20232;-67
2022/09/25 15:04:12;;;;;;;0.30;0.20;;;18.70;99.90;;;;;;6185872;23;20236;-67
2022/09/25 15:06:40;;;;;;;1.48;0.40;;;18.70;99.90;;;;;;6185638;23;20184;-67
2022/09/25 15:09:30;;;;;;;0.95;0.40;;;18.70;99.90;;;;;;6185195;23;20508;-66
2022/09/25 15:11:56;;;;;;;0.60;0.40;;;18.70;99.90;;;;;;6185285;23;20693;-65
2022/09/25 15:14:25;;;;;;;0.47;0.30;;;18.80;99.90;;;;;;6185394;23;20622;-65
2022/09/25 15:19:41;;;;;;;1.98;0.52;;;19.00;99.90;;;;;;6185573;23;20310;-68
2022/09/25 15:22:16;;;;;;;1.63;0.50;;;18.90;99.90;;;;;;6184429;23;20197;-64
2022/09/25 15:24:47;;;;;;;0.88;0.38;;;18.60;99.90;;;;;;6184845;23;20232;-67
2022/09/25 15:27:15;;;;;;;1.10;0.40;;;18.70;99.90;;;;;;6184634;23;20183;-64
2022/09/25 15:29:46;;;;;;;1.13;0.43;;;18.80;99.90;;;;;;6184535;23;20196;-67
2022/09/25 15:32:18;;;;;;;1.40;0.40;;;18.90;99.90;;;;;;6184835;23;20207;-70
2022/09/25 15:34:45;;;;;;;1.48;0.30;;;19.00;99.90;;;;;;6184460;23;20181;-66
2022/09/25 15:37:24;;;;;;;0.82;0.40;;;19.10;99.90;;;;;;6185496;23;20181;-66
2022/09/25 15:39:52;;;;;;;1.17;0.30;;;19.10;99.90;;;;;;6184749;23;20200;-65
2022/09/25 15:42:19;;;;;;;0.80;0.30;;;19.10;99.90;;;;;;6185400;23;20280;-65
2022/09/25 15:44:48;;;;;;;0.65;0.40;;;19.00;99.90;;;;;;6185077;23;20657;-67
2022/09/25 15:47:51;;;;;;;0.40;0.30;;;18.80;99.90;;;;;;6185775;23;20177;-65
2022/09/25 15:50:23;;;;;;;0.30;0.30;;;19.00;99.90;;;;;;6185448;23;20178;-64
2022/09/25 15:52:53;;;;;;;0.93;0.22;;;19.10;99.90;;;;;;6185162;23;20205;-64
2022/09/25 15:55:21;;;;;;;3.60;0.30;;;19.20;99.90;;;;;;6185220;23;20185;-64
2022/09/25 15:57:49;;;;;;;1.02;0.40;;;19.20;99.90;;;;;;6184812;23;20178;-64
2022/09/25 16:05:59;;;;;;;0.65;0.40;;;18.80;99.90;;;;;;6185499;23;20507;-65
2022/09/25 16:08:31;;;;;;;2.30;0.40;;;18.60;99.90;;;;;;6185356;23;20181;-65
2022/09/25 16:11:06;;;;;;;1.50;0.30;;;18.50;99.90;;;;;;6185282;23;20185;-65
2022/09/25 16:13:33;;;;;;;0.43;0.30;;;18.50;99.90;;;;;;6184573;23;20685;-66
2022/09/25 16:16:02;;;;;;;0.40;0.30;;;18.50;99.90;;;;;;6185422;23;20180;-67
2022/09/25 16:18:35;;;;;;;1.02;0.47;;;18.30;99.90;;;;;;6185216;23;20180;-65
2022/09/25 16:21:15;;;;;;;1.53;0.40;;;18.20;99.90;;;;;;6184985;23;20662;-66
2022/09/25 16:23:43;;;;;;;0.40;0.30;;;18.10;99.90;;;;;;6184630;23;20200;-68
2022/09/25 16:26:21;;;;;;;1.93;0.50;;;17.90;99.90;;;;;;6184559;23;20177;-63
2022/09/25 16:28:56;;;;;;;0.70;0.40;;;17.80;99.90;;;;;;6184487;23;20185;-64
2022/09/25 16:31:25;;;;;;;0.53;0.30;;;17.60;99.90;;;;;;6184319;23;20637;-66
2022/09/25 16:33:55;;;;;;;0.50;0.33;;;17.60;99.90;;;;;;6187457;23;20224;-64
2022/09/25 16:36:24;;;;;;;1.73;0.40;;;17.50;99.90;;;;;;6187423;23;20260;-64
2022/09/25 16:39:13;;;;;;;1.00;0.50;;;17.50;99.90;;;;;;6186443;23;20184;-65
2022/09/25 16:41:44;;;;;;;1.63;0.40;;;17.30;99.90;;;;;;6186612;23;20209;-65
2022/09/25 16:44:15;;;;;;;0.77;0.43;;;17.20;99.90;;;;;;6187303;23;20215;-65
2022/09/25 16:46:44;;;;;;;0.97;0.57;;;17.20;99.90;;;;;;6186775;23;20184;-65
2022/09/25 16:49:11;;;;;;;1.83;0.50;;;17.10;99.90;;;;;;6186529;23;20651;-65
2022/09/25 16:51:44;;;;;;;1.87;0.23;;;17.10;99.90;;;;;;6186514;23;20704;-66
2022/09/25 16:54:14;;;;;;;0.73;0.50;;;17.10;99.90;;;;;;6186858;23;20181;-69
2022/09/25 16:56:42;;;;;;;0.90;0.37;;;17.10;99.90;;;;;;6186591;23;20191;-64
2022/09/25 16:59:17;;;;;;;1.07;0.60;;;17.00;99.90;;;;;;6187053;23;20177;-65
2022/09/25 17:01:48;;;;;;;0.77;0.40;;;16.90;99.90;;;;;;6186810;23;20234;-68
2022/09/25 17:04:15;;;;;;;1.27;0.60;;;16.80;99.90;;;;;;6186464;23;20264;-65
2022/09/25 17:06:44;;;;;;;0.70;0.47;;;16.70;99.90;;;;;;6186372;23;20232;-64
2022/09/25 17:09:13;;;;;;;1.33;0.50;;;16.60;99.90;;;;;;6186492;23;20558;-65
2022/09/25 17:11:41;;;;;;;0.97;0.60;;;16.40;99.90;;;;;;6180223;23;20269;-70
2022/09/25 17:14:11;;;;;;;1.30;0.50;;;16.30;99.90;;;;;;6183137;23;20239;-67
2022/09/25 17:16:38;;;;;;;2.10;0.70;;;16.20;99.90;;;;;;6185003;23;20177;-67
2022/09/25 17:19:14;;;;;;;3.40;0.60;;;16.10;99.90;;;;;;6184394;23;20264;-66
2022/09/25 17:21:41;;;;;;;1.77;0.60;;;16.20;99.90;;;;;;6184826;23;20209;-66
2022/09/25 17:24:11;;;;;;;0.80;0.60;;;16.20;99.90;;;;;;6185216;23;20181;-66
2022/09/25 17:26:38;;;;;;;1.10;0.53;;;16.20;99.90;;;;;;6184266;23;20177;-65
2022/09/25 17:29:04;;;;;;;1.30;1.17;;;16.20;99.90;;;;;;6184664;23;20272;-68
2022/09/25 17:31:32;;;;;;;1.70;0.73;;;16.20;99.90;;;;;;6184859;23;20657;-66
2022/09/25 17:33:59;;;;;;;2.33;0.80;;;16.30;99.90;;;;;;6184283;23;20201;-66
2022/09/25 17:36:27;;;;;;;1.57;0.73;;;16.30;99.90;;;;;;6184679;23;20633;-66
2022/09/25 17:38:54;;;;;;;0.97;0.50;;;16.20;99.90;;;;;;6186315;23;20260;-65
2022/09/25 17:41:28;;;;;;;1.47;0.77;;;16.30;99.90;;;;;;6185788;23;20344;-65
2022/09/25 17:43:55;;;;;;;3.07;0.87;;;16.20;99.90;;;;;;6185221;23;20743;-65
2022/09/25 17:46:22;;;;;;;2.57;1.10;;;16.20;99.90;;;;;;6185877;23;20181;-65
2022/09/25 17:48:49;;;;;;;2.43;0.80;;;16.20;99.90;;;;;;6186311;23;20191;-65
2022/09/25 17:51:17;;;;;;;1.60;1.00;;;16.30;99.90;;;;;;6186671;23;20208;-65
2022/09/25 17:53:47;;;;;;;1.93;1.00;;;16.30;99.90;;;;;;6185822;23;20280;-65
2022/09/25 17:56:15;;;;;;;2.67;1.00;;;16.30;99.90;;;;;;6186042;23;20189;-65
2022/09/25 17:58:43;;;;;;;1.93;1.10;;;16.30;99.90;;;;;;6186493;23;20184;-64
2022/09/25 18:01:13;;;;;;;1.97;1.00;;;16.20;99.90;;;;;;6186544;23;20216;-64
2022/09/25 18:03:40;;;;;;;2.00;1.10;;;16.20;99.90;;;;;;6186032;23;20204;-67
2022/09/25 18:06:07;;;;;;;4.30;1.30;;;16.10;99.90;;;;;;6186525;23;20182;-66
2022/09/25 18:08:35;;;;;;;2.93;1.20;;;16.00;99.90;;;;;;6186501;23;20178;-64
2022/09/25 18:11:03;;;;;;;1.87;1.00;;;15.90;99.90;;;;;;6185818;23;20204;-72
2022/09/25 18:13:30;;;;;;;2.63;1.03;;;15.90;99.90;;;;;;6184470;23;20203;-70
2022/09/25 18:15:58;;;;;;;2.93;1.00;;;15.80;99.90;;;;;;6182194;23;20184;-69
2022/09/25 18:22:15;;;;;;;1.60;0.97;;;15.80;99.90;;;;;;6184543;23;20181;-66
2022/09/25 18:23:59;;;;;;;3.50;1.10;;;15.70;99.90;;;;;;6181304;23;20204;-66
2022/09/25 18:26:29;;;;;;;5.73;1.20;;;15.60;99.90;;;;;;6184465;23;20264;-68
2022/09/25 18:28:56;;;;;;;1.40;0.90;;;15.50;99.90;;;;;;6185303;23;20505;-68
2022/09/25 18:31:24;;;;;;;3.13;1.40;;;15.50;99.90;;;;;;6185079;23;20193;-68
2022/09/25 18:33:53;;;;;;;2.93;1.20;;;15.40;99.90;;;;;;6185587;23;20198;-67
2022/09/25 18:36:20;;;;;;;3.73;1.40;;;15.30;99.90;;;;;;6185618;23;20181;-65
2022/09/25 18:38:47;;;;;;;2.13;1.10;;;15.20;99.90;;;;;;6185992;23;20181;-67
2022/09/25 18:41:14;;;;;;;1.20;0.73;;;15.10;99.90;;;;;;6185110;23;20929;-65
2022/09/25 18:43:42;;;;;;;3.40;0.90;;;15.00;99.90;;;;;;6184908;23;20201;-66
2022/09/25 18:46:09;;;;;;;0.70;0.63;;;14.80;99.90;;;;;;6185679;23;20181;-68
2022/09/25 18:48:36;;;;;;;2.37;1.43;;;14.90;99.90;;;;;;6185462;23;20227;-69
2022/09/25 18:51:03;;;;;;;2.83;0.63;;;14.80;99.90;;;;;;6185787;23;20185;-68
2022/09/25 18:53:31;;;;;;;1.33;0.80;;;14.80;99.90;;;;;;6185173;23;20201;-67
2022/09/25 18:55:58;;;;;;;1.57;0.73;;;14.80;99.90;;;;;;6185001;23;20296;-68
2022/09/25 18:58:28;;;;;;;1.20;0.70;;;14.70;99.90;;;;;;6185747;23;20188;-68
2022/09/25 19:00:56;;;;;;;2.43;0.80;;;14.70;99.90;;;;;;6185395;23;20211;-65
2022/09/25 19:03:23;;;;;;;1.50;0.70;;;14.60;99.90;;;;;;6185483;23;20283;-67
2022/09/25 19:05:57;;;;;;;1.10;0.70;;;14.50;99.90;;;;;;6185566;23;20183;-65
2022/09/25 19:08:23;;;;;;;0.90;0.80;;;14.40;99.90;;;;;;6185624;23;20177;-67
2022/09/25 19:10:50;;;;;;;2.37;0.60;;;14.40;99.90;;;;;;6184996;23;20182;-64
2022/09/25 19:13:18;;;;;;;1.83;0.90;;;14.30;99.90;;;;;;6184990;23;20665;-64
2022/09/25 19:15:44;;;;;;;0.87;0.70;;;14.30;99.90;;;;;;6185270;23;20185;-65
2022/09/25 19:18:13;;;;;;;2.87;0.80;;;14.30;99.90;;;;;;6185237;23;20177;-64
2022/09/25 19:20:47;;;;;;;0.90;0.60;;;14.20;99.90;;;;;;6185120;23;20205;-67
2022/09/25 19:23:13;;;;;;;1.53;0.70;;;14.10;99.90;;;;;;6185425;23;20259;-64
2022/09/25 19:25:51;;;;;;;1.57;0.60;;;14.00;99.90;;;;;;6185542;23;20264;-66
2022/09/25 19:28:18;;;;;;;1.27;0.50;;;13.90;99.90;;;;;;6185219;23;20176;-65
2022/09/25 19:30:44;;;;;;;1.47;0.70;;;13.90;99.90;;;;;;6185527;23;20261;-66
2022/09/25 19:33:12;;;;;;;0.63;0.50;;;13.80;99.90;;;;;;6185414;23;20405;-69
2022/09/25 19:35:39;;;;;;;2.63;0.70;;;13.80;99.90;;;;;;6184995;23;20256;-67
2022/09/25 19:38:06;;;;;;;2.00;0.80;;;13.70;99.90;;;;;;6185072;23;20177;-67
2022/09/25 19:40:36;;;;;;;2.37;0.70;;;13.70;99.90;;;;;;6184492;23;20178;-65
2022/09/25 19:43:02;;;;;;;2.27;0.83;;;13.70;99.90;;;;;;6185813;23;20201;-68
2022/09/25 19:45:29;;;;;;;2.60;0.73;;;13.60;99.90;;;;;;6186230;23;20178;-67
2022/09/25 19:47:56;;;;;;;1.73;0.70;;;13.60;99.90;;;;;;6186108;23;20181;-64
2022/09/25 19:50:24;;;;;;;2.13;0.70;;;13.50;99.90;;;;;;6185291;23;20177;-68
2022/09/25 19:52:51;;;;;;;1.80;0.70;;;13.40;99.90;;;;;;6185599;23;20291;-65
2022/09/25 19:55:18;;;;;;;3.67;1.20;;;13.30;99.90;;;;;;6184595;23;20185;-65
2022/09/25 19:57:45;;;;;;;1.87;0.90;;;13.20;99.90;;;;;;6184921;23;20177;-64
2022/09/25 20:00:17;;;;;;;1.07;0.70;;;13.20;99.90;;;;;;6185233;23;20177;-66
2022/09/25 20:02:45;;;;;;;1.77;0.73;;;13.10;99.90;;;;;;6184561;23;20271;-65
2022/09/25 20:05:12;;;;;;;2.63;1.30;;;13.00;99.90;;;;;;6184636;23;20251;-68
2022/09/25 20:07:40;;;;;;;1.60;1.00;;;12.90;99.90;;;;;;6184246;23;20188;-68
2022/09/25 20:10:07;;;;;;;2.33;1.07;;;12.90;99.90;;;;;;6184838;23;20184;-65
2022/09/25 20:12:34;;;;;;;2.03;1.03;;;12.80;99.90;;;;;;6184065;23;20590;-66
2022/09/25 20:15:01;;;;;;;1.47;0.90;;;12.80;99.90;;;;;;6184361;23;20187;-65
2022/09/25 20:17:28;;;;;;;2.03;0.90;;;12.80;99.90;;;;;;6184838;23;20177;-69
2022/09/25 20:19:55;;;;;;;3.00;0.77;;;12.80;99.90;;;;;;6184009;23;20196;-66
2022/09/25 20:22:21;;;;;;;1.77;1.10;;;12.80;99.90;;;;;;6184162;23;20219;-65
2022/09/25 20:24:50;;;;;;;1.93;1.40;;;12.90;99.90;;;;;;6184874;23;20185;-65
2022/09/25 20:27:17;;;;;;;3.07;1.33;;;12.80;99.90;;;;;;6184922;23;20181;-63
2022/09/25 20:29:44;;;;;;;2.40;1.30;;;12.80;99.90;;;;;;6184413;23;20177;-65
2022/09/25 20:32:11;;;;;;;2.47;1.50;;;12.70;99.90;;;;;;6183788;23;20201;-64
2022/09/25 20:34:38;;;;;;;4.27;1.73;;;12.60;99.90;;;;;;6184162;23;20626;-68
2022/09/25 20:37:04;;;;;;;3.87;1.90;;;12.60;99.90;;;;;;6184401;23;20185;-66
2022/09/25 20:39:31;;;;;;;5.63;1.57;;;12.50;99.90;;;;;;6184823;23;20257;-65
2022/09/25 20:41:59;;;;;;;4.20;2.23;;;12.50;99.90;;;;;;6184120;23;20211;-64
2022/09/25 20:44:26;;;;;;;3.47;2.10;;;12.50;99.90;;;;;;6184501;23;20188;-64
2022/09/25 20:46:53;;;;;;;5.67;1.93;;;12.50;99.90;;;;;;6184326;23;20185;-64
2022/09/25 20:49:20;;;;;;;4.80;2.20;;;12.50;99.90;;;;;;6184674;23;20178;-64
2022/09/25 20:51:47;;;;;;;3.13;1.93;;;12.40;99.90;;;;;;6184554;23;20228;-65
2022/09/25 20:54:13;;;;;;;4.97;2.30;;;12.30;99.90;;;;;;6184785;23;20177;-64
2022/09/25 20:56:42;;;;;;;3.57;2.20;;;12.30;99.90;;;;;;6184521;23;20567;-65
2022/09/25 20:59:11;;;;;;;7.83;2.47;;;12.40;99.90;;;;;;6184645;23;20261;-65
2022/09/25 21:01:40;;;;;;;4.53;1.80;;;12.40;99.90;;;;;;6185059;23;20204;-65
2022/09/25 21:04:08;;;;;;;3.93;1.77;;;12.40;99.90;;;;;;6183860;23;20216;-65
2022/09/25 21:06:37;;;;;;;6.30;1.80;;;12.20;99.90;;;;;;6185509;23;20181;-68
2022/09/25 21:09:07;;;;;;;3.00;1.90;;;12.20;99.90;;;;;;6185028;23;20177;-65
2022/09/25 21:11:34;;;;;;;2.97;1.73;;;12.10;99.90;;;;;;6184671;23;20185;-66
2022/09/25 21:14:02;;;;;;;3.50;1.93;;;12.10;99.90;;;;;;6185238;23;20197;-65
2022/09/25 21:16:33;;;;;;;3.13;2.00;;;12.10;99.90;;;;;;6185867;23;20630;-64
2022/09/25 21:19:02;;;;;;;3.80;2.00;;;12.10;99.90;;;;;;6186119;23;20181;-67
2022/09/25 21:21:30;;;;;;;3.77;1.73;;;12.10;99.90;;;;;;6186861;23;20284;-68
2022/09/25 21:23:58;;;;;;;2.67;1.87;;;12.00;99.90;;;;;;6187508;23;20200;-69
2022/09/25 21:26:26;;;;;;;2.07;1.77;;;12.00;99.90;;;;;;6186349;23;20181;-67
2022/09/25 21:28:55;;;;;;;4.07;2.10;;;12.00;99.90;;;;;;6186603;23;20184;-65
2022/09/25 21:31:24;;;;;;;4.07;2.20;;;11.90;99.90;;;;;;6186591;23;20216;-69
2022/09/25 21:33:53;;;;;;;4.03;2.50;;;11.90;99.90;;;;;;6186814;23;20207;-67
2022/09/25 21:36:20;;;;;;;5.07;1.90;;;12.00;99.90;;;;;;6186858;23;20602;-65
2022/09/25 21:38:48;;;;;;;3.07;1.90;;;11.90;99.90;;;;;;6187185;23;20203;-66
2022/09/25 21:41:16;;;;;;;3.03;1.83;;;11.90;99.90;;;;;;6186307;23;20645;-64
2022/09/25 21:43:44;;;;;;;4.17;1.80;;;11.90;99.90;;;;;;6186025;23;20252;-66
2022/09/25 21:46:13;;;;;;;3.17;1.70;;;11.90;99.90;;;;;;6186604;23;20177;-64
2022/09/25 21:48:43;;;;;;;2.40;1.57;;;11.90;99.90;;;;;;6186521;23;20184;-65
2022/09/25 21:51:13;;;;;;;2.73;1.77;;;11.80;99.90;;;;;;6186576;23;20240;-65
2022/09/25 21:53:40;;;;;;;4.90;1.83;;;11.70;99.90;;;;;;6186490;23;20205;-65
2022/09/25 21:56:09;;;;;;;3.63;1.57;;;11.70;99.90;;;;;;6186209;23;20195;-64
2022/09/25 21:58:38;;;;;;;3.80;1.77;;;11.70;99.90;;;;;;6185860;23;20498;-67
2022/09/25 22:01:08;;;;;;;5.03;2.53;;;11.70;99.90;;;;;;6186505;23;20256;-64
2022/09/25 22:03:36;;;;;;;4.60;1.73;;;11.70;99.90;;;;;;6186231;23;20204;-65
